Pagrindinis puslapis
METAR-TAF:

METAR-TAF

Oro uostai :

Niamėjus, Nigeris

platuma: 13-29N, ilguma: 002-10E, Aukštis: 223 m

Dabartinis oras

Ataskaita buvo paskelbta 1 valandą ir 15 minutes, ne 02:00 UTC
Vėjas 5 kt iš Šiaurės
Temperatūra 20°C
Drėgmė 21%
Slėgis 1015 hPa
Matomumas: 2300 m
dulkės

METAR: DRRN 220200Z 36005KT 2300 DU NSC 20/M03 Q1015 NOSIG

Laikas: 04:15 (03:15 UTC)

Prognozė

Ataskaita buvo paskelbta 4 valandos ir 15 minutes, ne 23:00 UTC
Prognozė galioja nuo 22 metu 00 UTC su 23 metu 06 UTC
Vėjas 10 kt iš Šiaurės Rytų
Matomumas: 2500 m
dulkės
Tapsmas
nuo 22 metu 01 UTC su 22 metu 03 UTC
Matomumas: 3500 m
Laikinai
nuo 22 metu 07 UTC su 22 metu 11 UTC
Vėjas 18 kt iš Rytų
Matomumas: 2000 m
Dulkes pustymas

TAF: DRRN 212300Z 2200/2306 04010KT 2500 DU NSC BECMG 2201/2203 3500 TEMPO 2207/2211 10018KT 2000 BLDU

Orai ataskaitas ir orų prognozės (METAR, TAF).

turimą stotys yra geltonos ir raudonos taškus žemėlapyje.

Perkelti pele per norėdami pamatyti stoties vardą.

Tada spustelėkite, norėdami matyti oro stebėjimo ir prognozės.

Norėdami pakeisti žemėlapį: spustelėkite ant žalios mygtukų su juodo kryžiaus žemyn,; žalią mygtuką su brūkšneliu, jei norite nutolinti; arba žalių rodyklių gretimoms žemėlapius.


METAR-TAF: